sensor_id;sensor_type;location;lat;lon;timestamp;pressure;altitude;pressure_sealevel;temperature;humidity
78615;BME280;67937;52.488;20.952;2023-04-06T00:02:05;101287.15;;;1.35;62.72
78615;BME280;67937;52.488;20.952;2023-04-06T00:04:33;101288.55;;;1.35;62.78
78615;BME280;67937;52.488;20.952;2023-04-06T00:07:01;101285.48;;;1.32;62.90
78615;BME280;67937;52.488;20.952;2023-04-06T00:09:29;101278.88;;;1.33;62.93
78615;BME280;67937;52.488;20.952;2023-04-06T00:11:57;101284.58;;;1.34;62.86
78615;BME280;67937;52.488;20.952;2023-04-06T00:14:25;101285.11;;;1.33;63.10
78615;BME280;67937;52.488;20.952;2023-04-06T00:16:53;101283.63;;;1.30;62.89
78615;BME280;67937;52.488;20.952;2023-04-06T00:19:21;101282.23;;;1.30;63.27
78615;BME280;67937;52.488;20.952;2023-04-06T00:21:49;101279.23;;;1.32;63.28
78615;BME280;67937;52.488;20.952;2023-04-06T00:24:17;101278.27;;;1.35;63.41
78615;BME280;67937;52.488;20.952;2023-04-06T00:26:45;101275.80;;;1.37;63.51
78615;BME280;67937;52.488;20.952;2023-04-06T00:29:13;101276.92;;;1.40;63.70
78615;BME280;67937;52.488;20.952;2023-04-06T00:31:41;101274.80;;;1.42;63.69
78615;BME280;67937;52.488;20.952;2023-04-06T00:34:09;101273.73;;;1.42;63.52
78615;BME280;67937;52.488;20.952;2023-04-06T00:36:37;101269.78;;;1.40;63.47
78615;BME280;67937;52.488;20.952;2023-04-06T00:39:05;101269.23;;;1.42;63.42
78615;BME280;67937;52.488;20.952;2023-04-06T00:41:33;101264.73;;;1.41;63.45
78615;BME280;67937;52.488;20.952;2023-04-06T00:44:01;101267.01;;;1.40;63.23
78615;BME280;67937;52.488;20.952;2023-04-06T00:46:29;101268.58;;;1.40;62.90
78615;BME280;67937;52.488;20.952;2023-04-06T00:48:57;101264.06;;;1.40;62.89
78615;BME280;67937;52.488;20.952;2023-04-06T00:51:26;101266.63;;;1.41;62.94
78615;BME280;67937;52.488;20.952;2023-04-06T00:53:54;101263.09;;;1.44;63.01
78615;BME280;67937;52.488;20.952;2023-04-06T00:56:22;101263.76;;;1.45;62.89
78615;BME280;67937;52.488;20.952;2023-04-06T00:58:52;101259.65;;;1.43;62.88
78615;BME280;67937;52.488;20.952;2023-04-06T01:01:21;101261.63;;;1.40;62.78
78615;BME280;67937;52.488;20.952;2023-04-06T01:03:49;101260.27;;;1.39;62.78
78615;BME280;67937;52.488;20.952;2023-04-06T01:06:17;101258.27;;;1.35;62.91
78615;BME280;67937;52.488;20.952;2023-04-06T01:08:45;101260.02;;;1.35;62.94
78615;BME280;67937;52.488;20.952;2023-04-06T01:11:13;101257.46;;;1.33;62.98
78615;BME280;67937;52.488;20.952;2023-04-06T01:13:41;101254.72;;;1.31;62.97
78615;BME280;67937;52.488;20.952;2023-04-06T01:16:08;101252.65;;;1.31;62.87
78615;BME280;67937;52.488;20.952;2023-04-06T01:18:37;101255.45;;;1.30;62.97
78615;BME280;67937;52.488;20.952;2023-04-06T01:21:06;101252.55;;;1.28;62.99
78615;BME280;67937;52.488;20.952;2023-04-06T01:23:35;101251.71;;;1.27;63.06
78615;BME280;67937;52.488;20.952;2023-04-06T01:26:03;101248.61;;;1.26;63.29
78615;BME280;67937;52.488;20.952;2023-04-06T01:28:31;101242.64;;;1.28;63.53
78615;BME280;67937;52.488;20.952;2023-04-06T01:30:59;101243.48;;;1.29;63.75
78615;BME280;67937;52.488;20.952;2023-04-06T01:33:27;101241.20;;;1.30;64.11
78615;BME280;67937;52.488;20.952;2023-04-06T01:35:55;101240.69;;;1.30;63.97
78615;BME280;67937;52.488;20.952;2023-04-06T01:38:23;101240.48;;;1.30;63.92
78615;BME280;67937;52.488;20.952;2023-04-06T01:40:51;101235.61;;;1.31;63.84
78615;BME280;67937;52.488;20.952;2023-04-06T01:43:19;101237.69;;;1.31;63.68
78615;BME280;67937;52.488;20.952;2023-04-06T01:45:46;101236.71;;;1.29;63.69
78615;BME280;67937;52.488;20.952;2023-04-06T01:48:14;101236.61;;;1.26;63.73
78615;BME280;67937;52.488;20.952;2023-04-06T01:50:42;101230.19;;;1.26;63.73
78615;BME280;67937;52.488;20.952;2023-04-06T01:53:10;101232.12;;;1.25;63.73
78615;BME280;67937;52.488;20.952;2023-04-06T01:55:38;101231.67;;;1.23;63.78
78615;BME280;67937;52.488;20.952;2023-04-06T01:58:06;101230.82;;;1.22;63.74
78615;BME280;67937;52.488;20.952;2023-04-06T02:00:34;101228.55;;;1.22;63.91
78615;BME280;67937;52.488;20.952;2023-04-06T02:03:02;101224.08;;;1.20;64.12
78615;BME280;67937;52.488;20.952;2023-04-06T02:05:32;101218.91;;;1.19;64.12
78615;BME280;67937;52.488;20.952;2023-04-06T02:08:04;101218.06;;;1.18;64.29
78615;BME280;67937;52.488;20.952;2023-04-06T02:10:33;101223.42;;;1.19;64.62
78615;BME280;67937;52.488;20.952;2023-04-06T02:13:01;101221.38;;;1.17;64.61
78615;BME280;67937;52.488;20.952;2023-04-06T02:15:29;101220.00;;;1.17;64.86
78615;BME280;67937;52.488;20.952;2023-04-06T02:17:58;101214.81;;;1.16;65.01
78615;BME280;67937;52.488;20.952;2023-04-06T02:20:26;101217.20;;;1.18;65.41
78615;BME280;67937;52.488;20.952;2023-04-06T02:22:58;101211.75;;;1.20;65.28
78615;BME280;67937;52.488;20.952;2023-04-06T02:25:26;101213.67;;;1.20;65.30
78615;BME280;67937;52.488;20.952;2023-04-06T02:27:54;101213.20;;;1.18;65.13
78615;BME280;67937;52.488;20.952;2023-04-06T02:30:22;101213.75;;;1.16;64.94
78615;BME280;67937;52.488;20.952;2023-04-06T02:32:50;101214.52;;;1.14;65.00
78615;BME280;67937;52.488;20.952;2023-04-06T02:35:18;101214.42;;;1.11;65.12
78615;BME280;67937;52.488;20.952;2023-04-06T02:37:46;101208.77;;;1.08;65.07
78615;BME280;67937;52.488;20.952;2023-04-06T02:40:14;101212.92;;;1.02;65.08
78615;BME280;67937;52.488;20.952;2023-04-06T02:42:42;101210.66;;;0.96;65.06
78615;BME280;67937;52.488;20.952;2023-04-06T02:45:10;101205.63;;;0.89;65.37
78615;BME280;67937;52.488;20.952;2023-04-06T02:47:38;101209.90;;;0.85;65.51
78615;BME280;67937;52.488;20.952;2023-04-06T02:50:06;101207.79;;;0.79;65.68
78615;BME280;67937;52.488;20.952;2023-04-06T02:52:34;101210.78;;;0.77;65.83
78615;BME280;67937;52.488;20.952;2023-04-06T02:55:02;101210.02;;;0.74;66.04
78615;BME280;67937;52.488;20.952;2023-04-06T02:57:30;101209.95;;;0.69;66.22
78615;BME280;67937;52.488;20.952;2023-04-06T02:59:58;101205.82;;;0.68;66.24
78615;BME280;67937;52.488;20.952;2023-04-06T03:02:27;101209.20;;;0.64;66.34
78615;BME280;67937;52.488;20.952;2023-04-06T03:04:55;101209.77;;;0.62;66.29
78615;BME280;67937;52.488;20.952;2023-04-06T03:07:23;101214.53;;;0.60;66.25
78615;BME280;67937;52.488;20.952;2023-04-06T03:09:50;101212.65;;;0.58;66.33
78615;BME280;67937;52.488;20.952;2023-04-06T03:12:18;101212.36;;;0.56;66.20
78615;BME280;67937;52.488;20.952;2023-04-06T03:14:46;101214.71;;;0.53;66.22
78615;BME280;67937;52.488;20.952;2023-04-06T03:17:14;101212.86;;;0.50;66.29
78615;BME280;67937;52.488;20.952;2023-04-06T03:19:42;101213.61;;;0.48;66.26
78615;BME280;67937;52.488;20.952;2023-04-06T03:22:10;101212.79;;;0.46;66.40
78615;BME280;67937;52.488;20.952;2023-04-06T03:24:38;101214.08;;;0.43;66.26
78615;BME280;67937;52.488;20.952;2023-04-06T03:27:06;101213.80;;;0.40;66.47
78615;BME280;67937;52.488;20.952;2023-04-06T03:29:34;101217.03;;;0.35;66.57
78615;BME280;67937;52.488;20.952;2023-04-06T03:32:02;101215.71;;;0.32;66.55
78615;BME280;67937;52.488;20.952;2023-04-06T03:34:30;101219.91;;;0.31;66.73
78615;BME280;67937;52.488;20.952;2023-04-06T03:36:58;101221.15;;;0.30;66.70
78615;BME280;67937;52.488;20.952;2023-04-06T03:39:27;101220.31;;;0.29;66.68
78615;BME280;67937;52.488;20.952;2023-04-06T03:41:55;101222.41;;;0.28;66.89
78615;BME280;67937;52.488;20.952;2023-04-06T03:44:23;101217.95;;;0.26;67.15
78615;BME280;67937;52.488;20.952;2023-04-06T03:46:50;101220.73;;;0.26;67.22
78615;BME280;67937;52.488;20.952;2023-04-06T03:49:18;101219.84;;;0.27;67.43
78615;BME280;67937;52.488;20.952;2023-04-06T03:51:46;101215.48;;;0.27;67.54
78615;BME280;67937;52.488;20.952;2023-04-06T03:54:14;101212.87;;;0.28;67.44
78615;BME280;67937;52.488;20.952;2023-04-06T03:56:42;101214.77;;;0.28;67.64
78615;BME280;67937;52.488;20.952;2023-04-06T03:59:10;101215.80;;;0.29;67.85
78615;BME280;67937;52.488;20.952;2023-04-06T04:01:38;101215.80;;;0.29;68.04
78615;BME280;67937;52.488;20.952;2023-04-06T04:04:06;101218.54;;;0.30;68.25
78615;BME280;67937;52.488;20.952;2023-04-06T04:06:34;101221.00;;;0.29;68.19
78615;BME280;67937;52.488;20.952;2023-04-06T04:09:03;101219.25;;;0.30;68.22
78615;BME280;67937;52.488;20.952;2023-04-06T04:11:31;101221.48;;;0.31;68.12
78615;BME280;67937;52.488;20.952;2023-04-06T04:13:59;101220.70;;;0.34;68.36
78615;BME280;67937;52.488;20.952;2023-04-06T04:16:27;101219.13;;;0.35;68.25
78615;BME280;67937;52.488;20.952;2023-04-06T04:18:54;101223.21;;;0.38;68.36
78615;BME280;67937;52.488;20.952;2023-04-06T04:21:24;101218.86;;;0.39;68.45
78615;BME280;67937;52.488;20.952;2023-04-06T04:23:52;101223.85;;;0.41;68.40
78615;BME280;67937;52.488;20.952;2023-04-06T04:26:20;101219.55;;;0.46;68.61
78615;BME280;67937;52.488;20.952;2023-04-06T04:28:48;101219.30;;;0.49;68.74
78615;BME280;67937;52.488;20.952;2023-04-06T04:31:16;101214.59;;;0.50;68.74
78615;BME280;67937;52.488;20.952;2023-04-06T04:33:46;101214.19;;;0.53;68.80
78615;BME280;67937;52.488;20.952;2023-04-06T04:36:14;101208.94;;;0.55;68.83
78615;BME280;67937;52.488;20.952;2023-04-06T04:38:42;101211.19;;;0.55;68.85
78615;BME280;67937;52.488;20.952;2023-04-06T04:41:10;101208.08;;;0.55;68.93
78615;BME280;67937;52.488;20.952;2023-04-06T04:43:38;101201.29;;;0.55;68.94
78615;BME280;67937;52.488;20.952;2023-04-06T04:46:06;101209.27;;;0.62;68.88
78615;BME280;67937;52.488;20.952;2023-04-06T04:48:34;101205.09;;;0.62;68.85
78615;BME280;67937;52.488;20.952;2023-04-06T04:51:03;101201.84;;;0.60;68.61
78615;BME280;67937;52.488;20.952;2023-04-06T04:53:31;101204.04;;;0.63;68.62
78615;BME280;67937;52.488;20.952;2023-04-06T04:55:59;101192.41;;;0.63;68.56
78615;BME280;67937;52.488;20.952;2023-04-06T04:58:27;101196.43;;;0.68;68.76
78615;BME280;67937;52.488;20.952;2023-04-06T05:00:55;101194.69;;;0.68;68.73
78615;BME280;67937;52.488;20.952;2023-04-06T05:03:25;101197.89;;;0.72;68.73
78615;BME280;67937;52.488;20.952;2023-04-06T05:05:54;101196.45;;;0.81;69.26
78615;BME280;67937;52.488;20.952;2023-04-06T05:08:22;101192.89;;;0.85;69.38
78615;BME280;67937;52.488;20.952;2023-04-06T05:10:50;101197.24;;;0.90;69.10
78615;BME280;67937;52.488;20.952;2023-04-06T05:13:18;101190.92;;;0.93;68.82
78615;BME280;67937;52.488;20.952;2023-04-06T05:15:46;101188.39;;;0.97;68.59
78615;BME280;67937;52.488;20.952;2023-04-06T05:18:14;101185.50;;;1.01;68.35
78615;BME280;67937;52.488;20.952;2023-04-06T05:20:42;101192.88;;;1.04;68.23
78615;BME280;67937;52.488;20.952;2023-04-06T05:23:11;101195.95;;;1.07;68.16
78615;BME280;67937;52.488;20.952;2023-04-06T05:25:39;101197.30;;;1.08;68.24
78615;BME280;67937;52.488;20.952;2023-04-06T05:28:07;101195.59;;;1.07;68.33
78615;BME280;67937;52.488;20.952;2023-04-06T05:30:35;101198.64;;;1.10;68.64
78615;BME280;67937;52.488;20.952;2023-04-06T05:33:04;101194.06;;;1.13;68.76
78615;BME280;67937;52.488;20.952;2023-04-06T05:35:32;101204.64;;;1.19;68.58
78615;BME280;67937;52.488;20.952;2023-04-06T05:38:00;101199.25;;;1.26;68.22
78615;BME280;67937;52.488;20.952;2023-04-06T05:40:28;101192.08;;;1.27;68.26
78615;BME280;67937;52.488;20.952;2023-04-06T05:42:56;101185.11;;;1.34;67.98
78615;BME280;67937;52.488;20.952;2023-04-06T05:45:23;101185.73;;;1.43;67.72
78615;BME280;67937;52.488;20.952;2023-04-06T05:47:51;101189.15;;;1.51;67.61
78615;BME280;67937;52.488;20.952;2023-04-06T05:50:19;101187.95;;;1.63;67.45
78615;BME280;67937;52.488;20.952;2023-04-06T05:52:48;101182.77;;;1.73;67.24
78615;BME280;67937;52.488;20.952;2023-04-06T05:55:16;101181.80;;;1.82;67.07
78615;BME280;67937;52.488;20.952;2023-04-06T05:57:44;101178.40;;;1.91;66.98
78615;BME280;67937;52.488;20.952;2023-04-06T06:00:13;101179.74;;;1.98;66.89
78615;BME280;67937;52.488;20.952;2023-04-06T06:02:41;101180.62;;;2.03;66.66
78615;BME280;67937;52.488;20.952;2023-04-06T06:05:09;101174.81;;;2.11;66.48
78615;BME280;67937;52.488;20.952;2023-04-06T06:07:37;101173.23;;;2.17;66.09
78615;BME280;67937;52.488;20.952;2023-04-06T06:10:05;101176.73;;;2.21;65.95
78615;BME280;67937;52.488;20.952;2023-04-06T06:12:34;101173.73;;;2.28;65.73
78615;BME280;67937;52.488;20.952;2023-04-06T06:15:02;101171.66;;;2.33;65.69
78615;BME280;67937;52.488;20.952;2023-04-06T06:17:30;101165.97;;;2.42;65.51
78615;BME280;67937;52.488;20.952;2023-04-06T06:19:58;101165.40;;;2.49;65.25
78615;BME280;67937;52.488;20.952;2023-04-06T06:22:26;101165.45;;;2.53;65.18
78615;BME280;67937;52.488;20.952;2023-04-06T06:24:54;101168.13;;;2.60;65.27
78615;BME280;67937;52.488;20.952;2023-04-06T06:27:22;101165.86;;;2.72;64.77
78615;BME280;67937;52.488;20.952;2023-04-06T06:29:50;101165.04;;;2.80;64.17
78615;BME280;67937;52.488;20.952;2023-04-06T06:32:18;101162.52;;;2.83;64.14
78615;BME280;67937;52.488;20.952;2023-04-06T06:34:46;101158.81;;;2.94;64.01
78615;BME280;67937;52.488;20.952;2023-04-06T06:37:14;101157.91;;;3.05;63.30
78615;BME280;67937;52.488;20.952;2023-04-06T06:39:42;101160.46;;;3.11;63.23
78615;BME280;67937;52.488;20.952;2023-04-06T06:42:10;101162.52;;;3.22;62.72
78615;BME280;67937;52.488;20.952;2023-04-06T06:44:38;101165.11;;;3.27;62.69
78615;BME280;67937;52.488;20.952;2023-04-06T06:47:06;101161.51;;;3.35;62.45
78615;BME280;67937;52.488;20.952;2023-04-06T06:49:34;101161.94;;;3.38;62.03
78615;BME280;67937;52.488;20.952;2023-04-06T06:52:02;101158.59;;;3.39;62.02
78615;BME280;67937;52.488;20.952;2023-04-06T06:54:30;101158.80;;;3.38;62.08
78615;BME280;67937;52.488;20.952;2023-04-06T06:56:58;101155.73;;;3.41;61.84
78615;BME280;67937;52.488;20.952;2023-04-06T06:59:26;101155.51;;;3.42;61.83
78615;BME280;67937;52.488;20.952;2023-04-06T07:01:54;101155.30;;;3.43;61.73
78615;BME280;67937;52.488;20.952;2023-04-06T07:04:23;101153.84;;;3.44;61.73
78615;BME280;67937;52.488;20.952;2023-04-06T07:06:51;101148.71;;;3.51;61.54
78615;BME280;67937;52.488;20.952;2023-04-06T07:09:20;101146.29;;;3.55;61.45
78615;BME280;67937;52.488;20.952;2023-04-06T07:11:48;101143.41;;;3.57;61.39
78615;BME280;67937;52.488;20.952;2023-04-06T07:14:16;101144.58;;;3.54;61.40
78615;BME280;67937;52.488;20.952;2023-04-06T07:16:44;101145.88;;;3.61;61.16
78615;BME280;67937;52.488;20.952;2023-04-06T07:19:13;101145.15;;;3.66;61.04
78615;BME280;67937;52.488;20.952;2023-04-06T07:21:41;101139.86;;;3.72;60.92
78615;BME280;67937;52.488;20.952;2023-04-06T07:24:09;101145.36;;;3.79;60.93
78615;BME280;67937;52.488;20.952;2023-04-06T07:26:37;101141.81;;;3.80;61.23
78615;BME280;67937;52.488;20.952;2023-04-06T07:29:05;101141.83;;;3.89;60.79
78615;BME280;67937;52.488;20.952;2023-04-06T07:31:33;101141.79;;;3.90;60.61
78615;BME280;67937;52.488;20.952;2023-04-06T07:34:02;101139.65;;;3.87;60.68
78615;BME280;67937;52.488;20.952;2023-04-06T07:36:30;101139.34;;;3.86;60.85
78615;BME280;67937;52.488;20.952;2023-04-06T07:38:58;101139.31;;;3.95;60.72
78615;BME280;67937;52.488;20.952;2023-04-06T07:41:26;101138.29;;;3.90;60.68
78615;BME280;67937;52.488;20.952;2023-04-06T07:43:54;101138.71;;;3.93;60.58
78615;BME280;67937;52.488;20.952;2023-04-06T07:46:22;101142.60;;;3.92;60.49
78615;BME280;67937;52.488;20.952;2023-04-06T07:48:50;101140.16;;;3.92;60.07
78615;BME280;67937;52.488;20.952;2023-04-06T07:51:18;101144.64;;;3.84;60.11
78615;BME280;67937;52.488;20.952;2023-04-06T07:53:46;101146.33;;;3.81;60.14
78615;BME280;67937;52.488;20.952;2023-04-06T07:56:14;101142.23;;;3.75;60.51
78615;BME280;67937;52.488;20.952;2023-04-06T07:58:43;101141.83;;;3.71;60.49
78615;BME280;67937;52.488;20.952;2023-04-06T08:01:11;101137.73;;;3.65;60.43
78615;BME280;67937;52.488;20.952;2023-04-06T08:03:39;101140.36;;;3.64;60.50
78615;BME280;67937;52.488;20.952;2023-04-06T08:06:07;101133.19;;;3.65;60.55
78615;BME280;67937;52.488;20.952;2023-04-06T08:08:35;101138.41;;;3.60;60.69
78615;BME280;67937;52.488;20.952;2023-04-06T08:11:03;101135.05;;;3.61;61.14
78615;BME280;67937;52.488;20.952;2023-04-06T08:13:31;101138.73;;;3.70;61.01
78615;BME280;67937;52.488;20.952;2023-04-06T08:15:59;101140.58;;;3.67;61.17
78615;BME280;67937;52.488;20.952;2023-04-06T08:18:28;101136.64;;;3.66;61.35
78615;BME280;67937;52.488;20.952;2023-04-06T08:20:56;101130.23;;;3.69;61.83
78615;BME280;67937;52.488;20.952;2023-04-06T08:23:24;101131.34;;;3.72;61.99
78615;BME280;67937;52.488;20.952;2023-04-06T08:25:52;101136.27;;;3.67;62.04
78615;BME280;67937;52.488;20.952;2023-04-06T08:28:21;101134.30;;;3.63;62.66
78615;BME280;67937;52.488;20.952;2023-04-06T08:30:49;101134.17;;;3.66;62.98
78615;BME280;67937;52.488;20.952;2023-04-06T08:33:17;101134.00;;;3.75;63.10
78615;BME280;67937;52.488;20.952;2023-04-06T08:35:45;101131.93;;;3.88;62.95
78615;BME280;67937;52.488;20.952;2023-04-06T08:38:13;101134.93;;;3.91;62.66
78615;BME280;67937;52.488;20.952;2023-04-06T08:40:41;101132.05;;;3.94;63.02
78615;BME280;67937;52.488;20.952;2023-04-06T08:43:13;101128.60;;;4.05;62.84
78615;BME280;67937;52.488;20.952;2023-04-06T08:45:41;101126.77;;;4.16;62.60
78615;BME280;67937;52.488;20.952;2023-04-06T08:48:11;101130.60;;;4.12;62.38
78615;BME280;67937;52.488;20.952;2023-04-06T08:50:39;101129.82;;;4.01;62.77
78615;BME280;67937;52.488;20.952;2023-04-06T08:53:08;101129.48;;;3.97;62.82
78615;BME280;67937;52.488;20.952;2023-04-06T08:55:36;101128.02;;;3.90;63.15
78615;BME280;67937;52.488;20.952;2023-04-06T08:58:06;101119.69;;;3.80;63.10
78615;BME280;67937;52.488;20.952;2023-04-06T09:00:38;101119.45;;;3.76;63.31
78615;BME280;67937;52.488;20.952;2023-04-06T09:03:07;101121.67;;;3.69;63.62
78615;BME280;67937;52.488;20.952;2023-04-06T09:05:35;101117.22;;;3.58;63.91
78615;BME280;67937;52.488;20.952;2023-04-06T09:08:03;101113.30;;;3.55;64.19
78615;BME280;67937;52.488;20.952;2023-04-06T09:10:32;101114.13;;;3.61;64.05
78615;BME280;67937;52.488;20.952;2023-04-06T09:13:05;101108.55;;;3.61;64.02
78615;BME280;67937;52.488;20.952;2023-04-06T09:15:33;101105.11;;;3.73;63.99
78615;BME280;67937;52.488;20.952;2023-04-06T09:18:01;101100.55;;;3.77;63.82
78615;BME280;67937;52.488;20.952;2023-04-06T09:20:29;101103.42;;;3.75;63.74
78615;BME280;67937;52.488;20.952;2023-04-06T09:22:57;101099.33;;;3.78;63.77
78615;BME280;67937;52.488;20.952;2023-04-06T09:25:26;101099.60;;;3.84;63.54
78615;BME280;67937;52.488;20.952;2023-04-06T09:28:02;101100.63;;;3.89;63.38
78615;BME280;67937;52.488;20.952;2023-04-06T09:30:30;101090.21;;;3.87;63.71
78615;BME280;67937;52.488;20.952;2023-04-06T09:32:58;101091.06;;;3.88;63.62
78615;BME280;67937;52.488;20.952;2023-04-06T09:35:27;101085.06;;;3.81;63.77
78615;BME280;67937;52.488;20.952;2023-04-06T09:37:57;101080.55;;;3.80;63.76
78615;BME280;67937;52.488;20.952;2023-04-06T09:40:25;101079.55;;;3.75;64.01
78615;BME280;67937;52.488;20.952;2023-04-06T09:42:55;101076.52;;;3.68;64.59
78615;BME280;67937;52.488;20.952;2023-04-06T09:45:25;101078.27;;;3.67;65.00
78615;BME280;67937;52.488;20.952;2023-04-06T09:47:57;101078.13;;;3.71;65.23
78615;BME280;67937;52.488;20.952;2023-04-06T09:50:26;101077.66;;;3.70;65.69
78615;BME280;67937;52.488;20.952;2023-04-06T09:52:55;101073.36;;;3.77;66.14
78615;BME280;67937;52.488;20.952;2023-04-06T09:55:30;101069.26;;;3.79;66.18
78615;BME280;67937;52.488;20.952;2023-04-06T09:58:06;101063.92;;;3.81;66.30
78615;BME280;67937;52.488;20.952;2023-04-06T10:00:48;101059.83;;;3.79;66.32
78615;BME280;67937;52.488;20.952;2023-04-06T10:05:52;101050.79;;;4.00;66.64
78615;BME280;67937;52.488;20.952;2023-04-06T10:08:27;101052.76;;;3.94;66.30
78615;BME280;67937;52.488;20.952;2023-04-06T10:10:56;101042.65;;;3.85;66.48
78615;BME280;67937;52.488;20.952;2023-04-06T10:13:24;101043.50;;;3.81;66.92
78615;BME280;67937;52.488;20.952;2023-04-06T10:15:53;101035.10;;;3.78;67.12
78615;BME280;67937;52.488;20.952;2023-04-06T10:18:22;101031.86;;;3.67;67.69
78615;BME280;67937;52.488;20.952;2023-04-06T10:20:57;101028.30;;;3.56;68.45
78615;BME280;67937;52.488;20.952;2023-04-06T10:23:41;101034.14;;;3.45;69.00
78615;BME280;67937;52.488;20.952;2023-04-06T10:26:15;101037.63;;;3.36;69.15
78615;BME280;67937;52.488;20.952;2023-04-06T10:28:47;101036.73;;;3.32;69.32
78615;BME280;67937;52.488;20.952;2023-04-06T10:31:24;101032.98;;;3.30;69.68
78615;BME280;67937;52.488;20.952;2023-04-06T10:33:58;101034.50;;;3.27;69.74
78615;BME280;67937;52.488;20.952;2023-04-06T10:36:28;101033.40;;;3.24;69.97
78615;BME280;67937;52.488;20.952;2023-04-06T10:38:59;101030.97;;;3.19;69.99
78615;BME280;67937;52.488;20.952;2023-04-06T10:41:40;101028.04;;;3.23;70.16
78615;BME280;67937;52.488;20.952;2023-04-06T10:44:20;101026.64;;;3.22;70.32
78615;BME280;67937;52.488;20.952;2023-04-06T10:46:56;101027.72;;;3.26;70.52
78615;BME280;67937;52.488;20.952;2023-04-06T10:49:26;101024.07;;;3.31;70.51
78615;BME280;67937;52.488;20.952;2023-04-06T10:51:56;101019.20;;;3.35;70.55
78615;BME280;67937;52.488;20.952;2023-04-06T10:54:26;101016.75;;;3.35;70.18
78615;BME280;67937;52.488;20.952;2023-04-06T10:56:55;101015.59;;;3.38;70.35
78615;BME280;67937;52.488;20.952;2023-04-06T10:59:24;101013.52;;;3.33;70.43
78615;BME280;67937;52.488;20.952;2023-04-06T11:01:53;101003.94;;;3.33;70.49
78615;BME280;67937;52.488;20.952;2023-04-06T11:04:22;101000.11;;;3.28;70.63
78615;BME280;67937;52.488;20.952;2023-04-06T11:06:50;100999.60;;;3.32;70.75
78615;BME280;67937;52.488;20.952;2023-04-06T11:09:27;100997.05;;;3.35;70.62
78615;BME280;67937;52.488;20.952;2023-04-06T11:11:56;100998.52;;;3.37;70.88
78615;BME280;67937;52.488;20.952;2023-04-06T11:14:24;100992.61;;;3.45;70.72
78615;BME280;67937;52.488;20.952;2023-04-06T11:16:53;100988.89;;;3.42;70.56
78615;BME280;67937;52.488;20.952;2023-04-06T11:19:21;100995.38;;;3.46;70.72
78615;BME280;67937;52.488;20.952;2023-04-06T11:21:49;100997.32;;;3.45;70.78
78615;BME280;67937;52.488;20.952;2023-04-06T11:24:22;100998.52;;;3.46;70.86
78615;BME280;67937;52.488;20.952;2023-04-06T11:26:55;100999.52;;;3.42;70.89
78615;BME280;67937;52.488;20.952;2023-04-06T11:29:25;100998.65;;;3.43;70.87
78615;BME280;67937;52.488;20.952;2023-04-06T11:31:59;100990.58;;;3.40;70.85
78615;BME280;67937;52.488;20.952;2023-04-06T11:34:33;100985.29;;;3.41;70.81
78615;BME280;67937;52.488;20.952;2023-04-06T11:37:06;100974.54;;;3.43;70.75
78615;BME280;67937;52.488;20.952;2023-04-06T11:39:52;100975.19;;;3.45;70.45
78615;BME280;67937;52.488;20.952;2023-04-06T11:42:24;100978.45;;;3.42;70.32
78615;BME280;67937;52.488;20.952;2023-04-06T11:44:56;100983.02;;;3.45;70.12
78615;BME280;67937;52.488;20.952;2023-04-06T11:47:35;100984.29;;;3.40;70.23
78615;BME280;67937;52.488;20.952;2023-04-06T11:50:07;100983.52;;;3.41;70.00
78615;BME280;67937;52.488;20.952;2023-04-06T11:52:36;100987.55;;;3.46;69.66
78615;BME280;67937;52.488;20.952;2023-04-06T11:55:18;100986.77;;;3.47;69.48
78615;BME280;67937;52.488;20.952;2023-04-06T11:57:46;100983.80;;;3.47;69.37
78615;BME280;67937;52.488;20.952;2023-04-06T12:00:16;100982.70;;;3.48;69.30
78615;BME280;67937;52.488;20.952;2023-04-06T12:02:48;100975.37;;;3.53;69.31
78615;BME280;67937;52.488;20.952;2023-04-06T12:05:16;100975.19;;;3.62;69.09
78615;BME280;67937;52.488;20.952;2023-04-06T12:07:44;100974.17;;;3.57;69.47
78615;BME280;67937;52.488;20.952;2023-04-06T12:10:12;100972.48;;;3.55;69.65
78615;BME280;67937;52.488;20.952;2023-04-06T12:12:41;100968.45;;;3.61;69.63
78615;BME280;67937;52.488;20.952;2023-04-06T12:15:09;100956.89;;;3.61;69.84
78615;BME280;67937;52.488;20.952;2023-04-06T12:17:37;100952.42;;;3.64;69.67
78615;BME280;67937;52.488;20.952;2023-04-06T12:20:06;100946.29;;;3.69;69.35
78615;BME280;67937;52.488;20.952;2023-04-06T12:22:34;100938.41;;;3.69;69.23
78615;BME280;67937;52.488;20.952;2023-04-06T12:25:03;100938.39;;;3.74;69.18
78615;BME280;67937;52.488;20.952;2023-04-06T12:27:31;100938.67;;;3.75;69.15
78615;BME280;67937;52.488;20.952;2023-04-06T12:29:59;100940.59;;;3.79;69.21
78615;BME280;67937;52.488;20.952;2023-04-06T12:32:27;100938.77;;;3.81;69.18
78615;BME280;67937;52.488;20.952;2023-04-06T12:34:55;100934.45;;;3.84;69.17
78615;BME280;67937;52.488;20.952;2023-04-06T12:37:23;100935.89;;;3.83;69.33
78615;BME280;67937;52.488;20.952;2023-04-06T12:39:52;100933.29;;;3.87;69.39
78615;BME280;67937;52.488;20.952;2023-04-06T12:42:20;100927.65;;;3.93;69.13
78615;BME280;67937;52.488;20.952;2023-04-06T12:44:48;100924.36;;;3.92;69.07
78615;BME280;67937;52.488;20.952;2023-04-06T12:47:16;100929.03;;;3.93;68.67
78615;BME280;67937;52.488;20.952;2023-04-06T12:49:44;100925.54;;;3.89;68.91
78615;BME280;67937;52.488;20.952;2023-04-06T12:52:12;100927.38;;;3.90;68.90
78615;BME280;67937;52.488;20.952;2023-04-06T12:54:41;100922.11;;;3.96;68.78
78615;BME280;67937;52.488;20.952;2023-04-06T12:57:09;100913.72;;;3.92;68.62
78615;BME280;67937;52.488;20.952;2023-04-06T12:59:37;100910.05;;;3.88;68.61
78615;BME280;67937;52.488;20.952;2023-04-06T13:02:06;100907.58;;;3.84;68.79